sensor_id;sensor_type;location;lat;lon;timestamp;temperature;humidity
66184;DHT22;52989;48.796;9.806;2022-07-29T00:02:06;17.50;99.90
66184;DHT22;52989;48.796;9.806;2022-07-29T00:04:35;17.80;99.90
66184;DHT22;52989;48.796;9.806;2022-07-29T00:07:00;17.60;99.90
66184;DHT22;52989;48.796;9.806;2022-07-29T00:09:26;18.00;99.90
66184;DHT22;52989;48.796;9.806;2022-07-29T00:11:53;18.10;99.90
66184;DHT22;52989;48.796;9.806;2022-07-29T00:14:20;17.90;99.90
66184;DHT22;52989;48.796;9.806;2022-07-29T00:16:45;18.00;99.90
66184;DHT22;52989;48.796;9.806;2022-07-29T00:19:11;18.10;99.90
66184;DHT22;52989;48.796;9.806;2022-07-29T00:21:37;18.20;99.90
66184;DHT22;52989;48.796;9.806;2022-07-29T00:24:02;18.30;99.90
66184;DHT22;52989;48.796;9.806;2022-07-29T00:26:28;18.40;99.90
66184;DHT22;52989;48.796;9.806;2022-07-29T00:28:58;18.40;99.90
66184;DHT22;52989;48.796;9.806;2022-07-29T00:31:24;18.40;99.90
66184;DHT22;52989;48.796;9.806;2022-07-29T00:33:49;18.40;99.90
66184;DHT22;52989;48.796;9.806;2022-07-29T00:36:15;18.20;99.90
66184;DHT22;52989;48.796;9.806;2022-07-29T00:38:40;18.30;99.90
66184;DHT22;52989;48.796;9.806;2022-07-29T00:41:09;18.40;99.90
66184;DHT22;52989;48.796;9.806;2022-07-29T00:43:35;18.30;99.90
66184;DHT22;52989;48.796;9.806;2022-07-29T00:46:01;18.30;99.90
66184;DHT22;52989;48.796;9.806;2022-07-29T00:48:26;18.40;99.90
66184;DHT22;52989;48.796;9.806;2022-07-29T00:50:52;18.40;99.90
66184;DHT22;52989;48.796;9.806;2022-07-29T00:53:19;18.40;99.90
66184;DHT22;52989;48.796;9.806;2022-07-29T00:55:44;18.10;99.90
66184;DHT22;52989;48.796;9.806;2022-07-29T00:58:12;17.90;99.90
66184;DHT22;52989;48.796;9.806;2022-07-29T01:00:38;17.90;99.90
66184;DHT22;52989;48.796;9.806;2022-07-29T01:03:06;17.70;99.90
66184;DHT22;52989;48.796;9.806;2022-07-29T01:05:32;18.00;99.90
66184;DHT22;52989;48.796;9.806;2022-07-29T01:07:59;17.80;99.90
66184;DHT22;52989;48.796;9.806;2022-07-29T01:10:26;17.90;99.90
66184;DHT22;52989;48.796;9.806;2022-07-29T01:12:53;17.60;99.90
66184;DHT22;52989;48.796;9.806;2022-07-29T01:15:20;17.60;99.90
66184;DHT22;52989;48.796;9.806;2022-07-29T01:23:38;17.60;99.90
66184;DHT22;52989;48.796;9.806;2022-07-29T01:26:23;17.60;99.90
66184;DHT22;52989;48.796;9.806;2022-07-29T01:29:12;17.90;99.90
66184;DHT22;52989;48.796;9.806;2022-07-29T01:32:06;18.20;99.90
66184;DHT22;52989;48.796;9.806;2022-07-29T01:37:24;18.00;99.90
66184;DHT22;52989;48.796;9.806;2022-07-29T01:39:53;17.90;99.90
66184;DHT22;52989;48.796;9.806;2022-07-29T01:42:34;18.00;99.90
66184;DHT22;52989;48.796;9.806;2022-07-29T01:45:16;18.20;99.90
66184;DHT22;52989;48.796;9.806;2022-07-29T01:47:51;18.00;99.90
66184;DHT22;52989;48.796;9.806;2022-07-29T01:50:20;18.00;99.90
66184;DHT22;52989;48.796;9.806;2022-07-29T01:52:54;18.00;99.90
66184;DHT22;52989;48.796;9.806;2022-07-29T01:55:25;18.00;99.90
66184;DHT22;52989;48.796;9.806;2022-07-29T01:57:52;18.10;99.90
66184;DHT22;52989;48.796;9.806;2022-07-29T02:00:20;18.00;99.90
66184;DHT22;52989;48.796;9.806;2022-07-29T02:02:47;17.60;99.90
66184;DHT22;52989;48.796;9.806;2022-07-29T02:05:17;17.60;99.90
66184;DHT22;52989;48.796;9.806;2022-07-29T02:07:46;17.90;99.90
66184;DHT22;52989;48.796;9.806;2022-07-29T02:10:14;17.90;99.90
66184;DHT22;52989;48.796;9.806;2022-07-29T02:12:42;17.80;99.90
66184;DHT22;52989;48.796;9.806;2022-07-29T02:15:09;17.70;99.90
66184;DHT22;52989;48.796;9.806;2022-07-29T02:17:43;17.60;99.90
66184;DHT22;52989;48.796;9.806;2022-07-29T02:20:11;17.60;99.90
66184;DHT22;52989;48.796;9.806;2022-07-29T02:22:39;17.20;99.90
66184;DHT22;52989;48.796;9.806;2022-07-29T02:25:09;17.80;99.90
66184;DHT22;52989;48.796;9.806;2022-07-29T02:27:37;17.70;99.90
66184;DHT22;52989;48.796;9.806;2022-07-29T02:30:06;17.50;99.90
66184;DHT22;52989;48.796;9.806;2022-07-29T02:32:34;17.50;99.90
66184;DHT22;52989;48.796;9.806;2022-07-29T02:35:02;17.20;99.90
66184;DHT22;52989;48.796;9.806;2022-07-29T02:37:28;17.30;99.90
66184;DHT22;52989;48.796;9.806;2022-07-29T02:39:55;17.30;99.90
66184;DHT22;52989;48.796;9.806;2022-07-29T02:42:22;17.10;99.90
66184;DHT22;52989;48.796;9.806;2022-07-29T02:44:49;17.00;99.90
66184;DHT22;52989;48.796;9.806;2022-07-29T02:47:16;16.90;99.90
66184;DHT22;52989;48.796;9.806;2022-07-29T02:49:55;17.10;99.90
66184;DHT22;52989;48.796;9.806;2022-07-29T02:52:33;17.00;99.90
66184;DHT22;52989;48.796;9.806;2022-07-29T02:55:02;17.00;99.90
66184;DHT22;52989;48.796;9.806;2022-07-29T02:57:36;16.90;99.90
66184;DHT22;52989;48.796;9.806;2022-07-29T03:00:07;17.00;99.90
66184;DHT22;52989;48.796;9.806;2022-07-29T03:02:36;17.00;99.90
66184;DHT22;52989;48.796;9.806;2022-07-29T03:05:04;17.00;99.90
66184;DHT22;52989;48.796;9.806;2022-07-29T03:07:32;16.90;99.90
66184;DHT22;52989;48.796;9.806;2022-07-29T03:09:59;16.70;99.90
66184;DHT22;52989;48.796;9.806;2022-07-29T03:12:26;16.80;99.90
66184;DHT22;52989;48.796;9.806;2022-07-29T03:14:53;16.60;99.90
66184;DHT22;52989;48.796;9.806;2022-07-29T03:17:20;16.60;99.90
66184;DHT22;52989;48.796;9.806;2022-07-29T03:19:46;16.70;99.90
66184;DHT22;52989;48.796;9.806;2022-07-29T03:22:12;16.80;99.90
66184;DHT22;52989;48.796;9.806;2022-07-29T03:24:39;16.80;99.90
66184;DHT22;52989;48.796;9.806;2022-07-29T03:27:04;17.00;99.90
66184;DHT22;52989;48.796;9.806;2022-07-29T03:29:31;16.80;99.90
66184;DHT22;52989;48.796;9.806;2022-07-29T03:31:57;16.60;99.90
66184;DHT22;52989;48.796;9.806;2022-07-29T03:34:22;16.60;99.90
66184;DHT22;52989;48.796;9.806;2022-07-29T03:36:48;17.10;99.90
66184;DHT22;52989;48.796;9.806;2022-07-29T03:39:20;16.80;99.90
66184;DHT22;52989;48.796;9.806;2022-07-29T03:41:49;16.40;99.90
66184;DHT22;52989;48.796;9.806;2022-07-29T03:44:18;16.40;99.90
66184;DHT22;52989;48.796;9.806;2022-07-29T03:46:46;16.40;99.90
66184;DHT22;52989;48.796;9.806;2022-07-29T03:49:14;16.60;99.90
66184;DHT22;52989;48.796;9.806;2022-07-29T03:51:40;16.80;99.90
66184;DHT22;52989;48.796;9.806;2022-07-29T03:54:06;16.60;99.90
66184;DHT22;52989;48.796;9.806;2022-07-29T03:56:34;16.40;99.90
66184;DHT22;52989;48.796;9.806;2022-07-29T03:59:01;16.30;99.90
66184;DHT22;52989;48.796;9.806;2022-07-29T04:01:29;16.30;99.90
66184;DHT22;52989;48.796;9.806;2022-07-29T04:03:55;16.20;99.90
66184;DHT22;52989;48.796;9.806;2022-07-29T04:06:21;16.10;99.90
66184;DHT22;52989;48.796;9.806;2022-07-29T04:08:47;16.30;99.90
66184;DHT22;52989;48.796;9.806;2022-07-29T04:11:13;16.30;99.90
66184;DHT22;52989;48.796;9.806;2022-07-29T04:13:38;16.10;99.90
66184;DHT22;52989;48.796;9.806;2022-07-29T04:16:04;16.10;99.90
66184;DHT22;52989;48.796;9.806;2022-07-29T04:18:30;16.20;99.90
66184;DHT22;52989;48.796;9.806;2022-07-29T04:20:55;16.60;99.90
66184;DHT22;52989;48.796;9.806;2022-07-29T04:23:21;16.40;99.90
66184;DHT22;52989;48.796;9.806;2022-07-29T04:25:47;16.30;99.90
66184;DHT22;52989;48.796;9.806;2022-07-29T04:28:12;16.30;99.90
66184;DHT22;52989;48.796;9.806;2022-07-29T04:30:38;16.50;99.90
66184;DHT22;52989;48.796;9.806;2022-07-29T04:33:06;16.70;99.90
66184;DHT22;52989;48.796;9.806;2022-07-29T04:35:36;16.50;99.90
66184;DHT22;52989;48.796;9.806;2022-07-29T04:38:04;16.50;99.90
66184;DHT22;52989;48.796;9.806;2022-07-29T04:40:30;16.70;99.90
66184;DHT22;52989;48.796;9.806;2022-07-29T04:42:56;16.60;99.90
66184;DHT22;52989;48.796;9.806;2022-07-29T04:45:22;16.50;99.90
66184;DHT22;52989;48.796;9.806;2022-07-29T04:47:47;16.50;99.90
66184;DHT22;52989;48.796;9.806;2022-07-29T04:50:13;16.40;99.90
66184;DHT22;52989;48.796;9.806;2022-07-29T04:52:38;16.40;99.90
66184;DHT22;52989;48.796;9.806;2022-07-29T04:55:05;16.50;99.90
66184;DHT22;52989;48.796;9.806;2022-07-29T04:57:30;16.50;99.90
66184;DHT22;52989;48.796;9.806;2022-07-29T04:59:56;16.50;99.90
66184;DHT22;52989;48.796;9.806;2022-07-29T05:02:22;16.50;99.90
66184;DHT22;52989;48.796;9.806;2022-07-29T05:04:48;16.50;99.90
66184;DHT22;52989;48.796;9.806;2022-07-29T05:07:13;16.60;99.90
66184;DHT22;52989;48.796;9.806;2022-07-29T05:09:39;16.50;99.90
66184;DHT22;52989;48.796;9.806;2022-07-29T05:12:05;16.40;99.90
66184;DHT22;52989;48.796;9.806;2022-07-29T05:14:31;16.50;99.90
66184;DHT22;52989;48.796;9.806;2022-07-29T05:16:57;17.30;99.90
66184;DHT22;52989;48.796;9.806;2022-07-29T05:19:23;17.60;99.90
66184;DHT22;52989;48.796;9.806;2022-07-29T05:21:49;17.00;99.90
66184;DHT22;52989;48.796;9.806;2022-07-29T05:24:15;16.80;99.90
66184;DHT22;52989;48.796;9.806;2022-07-29T05:26:41;16.90;99.90
66184;DHT22;52989;48.796;9.806;2022-07-29T05:29:07;16.90;99.90
66184;DHT22;52989;48.796;9.806;2022-07-29T05:31:33;16.90;99.90
66184;DHT22;52989;48.796;9.806;2022-07-29T05:33:59;17.40;99.90
66184;DHT22;52989;48.796;9.806;2022-07-29T05:36:25;17.30;99.90
66184;DHT22;52989;48.796;9.806;2022-07-29T05:38:51;17.40;99.90
66184;DHT22;52989;48.796;9.806;2022-07-29T05:41:20;17.20;99.90
66184;DHT22;52989;48.796;9.806;2022-07-29T05:43:46;17.00;99.90
66184;DHT22;52989;48.796;9.806;2022-07-29T05:46:12;17.10;99.90
66184;DHT22;52989;48.796;9.806;2022-07-29T05:48:39;17.60;99.90
66184;DHT22;52989;48.796;9.806;2022-07-29T05:51:04;17.30;99.90
66184;DHT22;52989;48.796;9.806;2022-07-29T05:53:30;17.30;99.90
66184;DHT22;52989;48.796;9.806;2022-07-29T05:55:55;17.30;99.90
66184;DHT22;52989;48.796;9.806;2022-07-29T05:58:21;17.40;99.90
66184;DHT22;52989;48.796;9.806;2022-07-29T06:00:47;17.30;99.90
66184;DHT22;52989;48.796;9.806;2022-07-29T06:03:13;17.30;99.90
66184;DHT22;52989;48.796;9.806;2022-07-29T06:05:38;17.30;99.90
66184;DHT22;52989;48.796;9.806;2022-07-29T06:08:04;17.80;99.90
66184;DHT22;52989;48.796;9.806;2022-07-29T06:10:32;17.60;99.90
66184;DHT22;52989;48.796;9.806;2022-07-29T06:12:58;17.40;99.90
66184;DHT22;52989;48.796;9.806;2022-07-29T06:15:23;17.50;99.90
66184;DHT22;52989;48.796;9.806;2022-07-29T06:17:49;17.60;99.90
66184;DHT22;52989;48.796;9.806;2022-07-29T06:20:15;17.60;99.90
66184;DHT22;52989;48.796;9.806;2022-07-29T06:22:40;18.10;99.90
66184;DHT22;52989;48.796;9.806;2022-07-29T06:25:06;18.30;99.90
66184;DHT22;52989;48.796;9.806;2022-07-29T06:27:32;18.20;99.90
66184;DHT22;52989;48.796;9.806;2022-07-29T06:29:57;18.10;99.90
66184;DHT22;52989;48.796;9.806;2022-07-29T06:32:23;18.10;99.90
66184;DHT22;52989;48.796;9.806;2022-07-29T06:34:48;18.70;99.90
66184;DHT22;52989;48.796;9.806;2022-07-29T06:37:14;19.30;99.90
66184;DHT22;52989;48.796;9.806;2022-07-29T06:39:40;19.30;99.90
66184;DHT22;52989;48.796;9.806;2022-07-29T06:42:06;19.20;99.90
66184;DHT22;52989;48.796;9.806;2022-07-29T06:44:32;19.30;99.90
66184;DHT22;52989;48.796;9.806;2022-07-29T06:46:59;19.40;99.90
66184;DHT22;52989;48.796;9.806;2022-07-29T06:49:25;19.40;99.90
66184;DHT22;52989;48.796;9.806;2022-07-29T06:51:52;19.40;99.90
66184;DHT22;52989;48.796;9.806;2022-07-29T06:54:18;19.10;99.90
66184;DHT22;52989;48.796;9.806;2022-07-29T06:56:43;18.50;99.90
66184;DHT22;52989;48.796;9.806;2022-07-29T06:59:10;18.30;99.90
66184;DHT22;52989;48.796;9.806;2022-07-29T07:01:37;18.50;99.90
66184;DHT22;52989;48.796;9.806;2022-07-29T07:04:03;18.70;99.90
66184;DHT22;52989;48.796;9.806;2022-07-29T07:06:28;18.80;99.90
66184;DHT22;52989;48.796;9.806;2022-07-29T07:08:54;19.10;99.90
66184;DHT22;52989;48.796;9.806;2022-07-29T07:11:20;19.30;99.90
66184;DHT22;52989;48.796;9.806;2022-07-29T07:13:45;19.30;99.90
66184;DHT22;52989;48.796;9.806;2022-07-29T07:16:11;19.10;99.90
66184;DHT22;52989;48.796;9.806;2022-07-29T07:18:36;19.30;99.90
66184;DHT22;52989;48.796;9.806;2022-07-29T07:21:02;19.60;99.90
66184;DHT22;52989;48.796;9.806;2022-07-29T07:23:30;19.20;99.90
66184;DHT22;52989;48.796;9.806;2022-07-29T07:25:55;19.30;99.90
66184;DHT22;52989;48.796;9.806;2022-07-29T07:28:21;19.60;99.90
66184;DHT22;52989;48.796;9.806;2022-07-29T07:30:47;19.80;99.90
66184;DHT22;52989;48.796;9.806;2022-07-29T07:33:13;19.90;99.90
66184;DHT22;52989;48.796;9.806;2022-07-29T07:35:39;20.20;99.90
66184;DHT22;52989;48.796;9.806;2022-07-29T07:38:05;20.40;99.90
66184;DHT22;52989;48.796;9.806;2022-07-29T07:40:31;19.90;99.90
66184;DHT22;52989;48.796;9.806;2022-07-29T07:42:57;19.90;99.90
66184;DHT22;52989;48.796;9.806;2022-07-29T07:45:23;20.10;99.90
66184;DHT22;52989;48.796;9.806;2022-07-29T07:47:49;20.30;99.90
66184;DHT22;52989;48.796;9.806;2022-07-29T07:50:14;20.70;99.90
66184;DHT22;52989;48.796;9.806;2022-07-29T07:52:55;21.20;99.90
66184;DHT22;52989;48.796;9.806;2022-07-29T07:55:23;21.30;99.90
66184;DHT22;52989;48.796;9.806;2022-07-29T07:57:48;21.20;99.90
66184;DHT22;52989;48.796;9.806;2022-07-29T08:00:15;21.10;99.90
66184;DHT22;52989;48.796;9.806;2022-07-29T08:02:41;21.10;99.90
66184;DHT22;52989;48.796;9.806;2022-07-29T08:05:09;21.40;99.90
66184;DHT22;52989;48.796;9.806;2022-07-29T08:07:35;21.80;99.90
66184;DHT22;52989;48.796;9.806;2022-07-29T08:10:01;21.90;99.90
66184;DHT22;52989;48.796;9.806;2022-07-29T08:12:26;21.70;99.90
66184;DHT22;52989;48.796;9.806;2022-07-29T08:14:52;21.30;99.90
66184;DHT22;52989;48.796;9.806;2022-07-29T08:17:18;21.40;99.90
66184;DHT22;52989;48.796;9.806;2022-07-29T08:19:43;20.90;99.90
66184;DHT22;52989;48.796;9.806;2022-07-29T08:22:09;20.70;99.90
66184;DHT22;52989;48.796;9.806;2022-07-29T08:24:35;21.00;99.90
66184;DHT22;52989;48.796;9.806;2022-07-29T08:27:18;21.80;99.90
66184;DHT22;52989;48.796;9.806;2022-07-29T08:29:45;22.20;98.20
66184;DHT22;52989;48.796;9.806;2022-07-29T08:32:10;21.90;99.90
66184;DHT22;52989;48.796;9.806;2022-07-29T08:34:36;21.80;99.90
66184;DHT22;52989;48.796;9.806;2022-07-29T08:37:02;22.30;98.40
66184;DHT22;52989;48.796;9.806;2022-07-29T08:39:28;22.70;98.90
66184;DHT22;52989;48.796;9.806;2022-07-29T08:41:53;23.10;96.10
66184;DHT22;52989;48.796;9.806;2022-07-29T08:44:20;23.20;95.40
66184;DHT22;52989;48.796;9.806;2022-07-29T08:46:48;23.50;96.90
66184;DHT22;52989;48.796;9.806;2022-07-29T08:49:15;23.60;93.60
66184;DHT22;52989;48.796;9.806;2022-07-29T08:51:41;23.50;93.70
66184;DHT22;52989;48.796;9.806;2022-07-29T08:54:09;23.80;93.00
66184;DHT22;52989;48.796;9.806;2022-07-29T08:56:35;23.90;92.00
66184;DHT22;52989;48.796;9.806;2022-07-29T08:59:04;23.90;92.20
66184;DHT22;52989;48.796;9.806;2022-07-29T09:01:32;24.10;93.40
66184;DHT22;52989;48.796;9.806;2022-07-29T09:03:59;24.20;92.70
66184;DHT22;52989;48.796;9.806;2022-07-29T09:06:30;24.30;91.00
66184;DHT22;52989;48.796;9.806;2022-07-29T09:08:59;23.60;94.70
66184;DHT22;52989;48.796;9.806;2022-07-29T09:11:25;23.70;92.40
66184;DHT22;52989;48.796;9.806;2022-07-29T09:13:50;23.60;92.40
66184;DHT22;52989;48.796;9.806;2022-07-29T09:16:16;23.90;92.50
66184;DHT22;52989;48.796;9.806;2022-07-29T09:18:44;24.00;91.50
66184;DHT22;52989;48.796;9.806;2022-07-29T09:21:13;23.90;95.40
66184;DHT22;52989;48.796;9.806;2022-07-29T09:26:30;23.70;91.60
66184;DHT22;52989;48.796;9.806;2022-07-29T09:28:57;23.50;96.60
66184;DHT22;52989;48.796;9.806;2022-07-29T09:31:33;23.40;94.10
66184;DHT22;52989;48.796;9.806;2022-07-29T09:34:00;23.80;95.50
66184;DHT22;52989;48.796;9.806;2022-07-29T09:36:26;23.30;95.50
66184;DHT22;52989;48.796;9.806;2022-07-29T09:39:01;24.10;91.30
66184;DHT22;52989;48.796;9.806;2022-07-29T09:41:28;24.40;93.70
66184;DHT22;52989;48.796;9.806;2022-07-29T09:43:59;25.00;90.50
66184;DHT22;52989;48.796;9.806;2022-07-29T09:46:25;24.70;90.90
66184;DHT22;52989;48.796;9.806;2022-07-29T09:49:11;24.60;90.40
66184;DHT22;52989;48.796;9.806;2022-07-29T09:51:38;24.60;93.50
66184;DHT22;52989;48.796;9.806;2022-07-29T09:54:24;24.90;91.10
66184;DHT22;52989;48.796;9.806;2022-07-29T09:56:51;25.00;90.60
66184;DHT22;52989;48.796;9.806;2022-07-29T09:59:17;25.30;89.00
66184;DHT22;52989;48.796;9.806;2022-07-29T10:01:43;24.80;89.70
66184;DHT22;52989;48.796;9.806;2022-07-29T10:04:09;25.20;86.40
66184;DHT22;52989;48.796;9.806;2022-07-29T10:06:34;25.20;86.20
66184;DHT22;52989;48.796;9.806;2022-07-29T10:09:10;25.40;85.80
66184;DHT22;52989;48.796;9.806;2022-07-29T10:11:36;25.30;84.10
66184;DHT22;52989;48.796;9.806;2022-07-29T10:14:03;25.60;82.00
66184;DHT22;52989;48.796;9.806;2022-07-29T10:16:29;25.50;81.90
66184;DHT22;52989;48.796;9.806;2022-07-29T10:18:59;25.30;83.20
66184;DHT22;52989;48.796;9.806;2022-07-29T10:21:27;25.40;80.80
66184;DHT22;52989;48.796;9.806;2022-07-29T10:23:55;25.10;85.20
66184;DHT22;52989;48.796;9.806;2022-07-29T10:26:22;25.10;82.10
66184;DHT22;52989;48.796;9.806;2022-07-29T10:28:48;25.60;84.40
66184;DHT22;52989;48.796;9.806;2022-07-29T10:31:28;25.80;80.40
66184;DHT22;52989;48.796;9.806;2022-07-29T10:34:23;26.30;80.60
66184;DHT22;52989;48.796;9.806;2022-07-29T10:37:03;25.60;82.20
66184;DHT22;52989;48.796;9.806;2022-07-29T10:40:03;25.40;81.60
66184;DHT22;52989;48.796;9.806;2022-07-29T10:42:52;25.50;85.70
66184;DHT22;52989;48.796;9.806;2022-07-29T10:45:18;25.40;79.70
66184;DHT22;52989;48.796;9.806;2022-07-29T10:47:45;25.50;80.80
66184;DHT22;52989;48.796;9.806;2022-07-29T10:50:10;25.50;88.00
66184;DHT22;52989;48.796;9.806;2022-07-29T10:52:52;25.90;90.10
66184;DHT22;52989;48.796;9.806;2022-07-29T10:55:38;26.40;82.50
66184;DHT22;52989;48.796;9.806;2022-07-29T10:58:22;26.60;83.30
66184;DHT22;52989;48.796;9.806;2022-07-29T11:00:53;27.30;77.50
66184;DHT22;52989;48.796;9.806;2022-07-29T11:03:44;26.40;85.20
66184;DHT22;52989;48.796;9.806;2022-07-29T11:06:15;26.10;80.90
66184;DHT22;52989;48.796;9.806;2022-07-29T11:08:41;26.20;80.90
66184;DHT22;52989;48.796;9.806;2022-07-29T11:13:45;25.40;91.40
66184;DHT22;52989;48.796;9.806;2022-07-29T11:16:11;25.50;87.00
66184;DHT22;52989;48.796;9.806;2022-07-29T11:21:42;26.60;82.20
66184;DHT22;52989;48.796;9.806;2022-07-29T11:24:30;25.90;89.70
66184;DHT22;52989;48.796;9.806;2022-07-29T11:27:14;25.80;83.70
66184;DHT22;52989;48.796;9.806;2022-07-29T11:29:49;25.70;87.20
66184;DHT22;52989;48.796;9.806;2022-07-29T11:32:16;25.80;82.20
66184;DHT22;52989;48.796;9.806;2022-07-29T11:34:43;25.50;87.70
66184;DHT22;52989;48.796;9.806;2022-07-29T11:39:36;26.00;79.10
66184;DHT22;52989;48.796;9.806;2022-07-29T11:47:27;25.90;80.50
66184;DHT22;52989;48.796;9.806;2022-07-29T11:49:54;25.80;79.60
66184;DHT22;52989;48.796;9.806;2022-07-29T11:52:21;25.70;80.60
66184;DHT22;52989;48.796;9.806;2022-07-29T11:54:48;25.60;79.30
66184;DHT22;52989;48.796;9.806;2022-07-29T11:57:16;25.50;83.70
66184;DHT22;52989;48.796;9.806;2022-07-29T11:59:44;25.40;80.90
66184;DHT22;52989;48.796;9.806;2022-07-29T12:02:11;25.30;80.30
66184;DHT22;52989;48.796;9.806;2022-07-29T12:04:51;25.10;79.90
66184;DHT22;52989;48.796;9.806;2022-07-29T12:07:17;25.20;80.80
66184;DHT22;52989;48.796;9.806;2022-07-29T12:09:50;25.20;79.30
66184;DHT22;52989;48.796;9.806;2022-07-29T12:12:17;25.10;79.10
66184;DHT22;52989;48.796;9.806;2022-07-29T12:14:43;25.00;79.80
66184;DHT22;52989;48.796;9.806;2022-07-29T12:19:54;24.90;80.80
66184;DHT22;52989;48.796;9.806;2022-07-29T12:22:27;24.90;84.00
66184;DHT22;52989;48.796;9.806;2022-07-29T12:24:54;24.70;86.00
66184;DHT22;52989;48.796;9.806;2022-07-29T12:27:19;24.60;84.70
66184;DHT22;52989;48.796;9.806;2022-07-29T12:29:58;24.70;86.90
66184;DHT22;52989;48.796;9.806;2022-07-29T12:32:44;24.60;83.10
66184;DHT22;52989;48.796;9.806;2022-07-29T12:35:15;24.60;85.00
66184;DHT22;52989;48.796;9.806;2022-07-29T12:37:43;24.60;85.50
66184;DHT22;52989;48.796;9.806;2022-07-29T12:40:11;24.60;89.00
66184;DHT22;52989;48.796;9.806;2022-07-29T12:42:38;24.50;85.90
66184;DHT22;52989;48.796;9.806;2022-07-29T12:45:04;24.70;85.10
66184;DHT22;52989;48.796;9.806;2022-07-29T12:47:31;25.00;87.60
66184;DHT22;52989;48.796;9.806;2022-07-29T12:50:11;24.90;90.20
66184;DHT22;52989;48.796;9.806;2022-07-29T12:52:40;24.70;90.40
66184;DHT22;52989;48.796;9.806;2022-07-29T12:55:05;24.40;92.80
66184;DHT22;52989;48.796;9.806;2022-07-29T12:57:35;24.10;91.50
66184;DHT22;52989;48.796;9.806;2022-07-29T13:00:11;23.80;96.30
66184;DHT22;52989;48.796;9.806;2022-07-29T13:02:40;23.40;97.30
66184;DHT22;52989;48.796;9.806;2022-07-29T13:05:08;23.50;96.90
66184;DHT22;52989;48.796;9.806;2022-07-29T13:07:35;23.50;96.10
66184;DHT22;52989;48.796;9.806;2022-07-29T13:10:15;24.10;93.30
66184;DHT22;52989;48.796;9.806;2022-07-29T13:13:01;24.60;90.40
66184;DHT22;52989;48.796;9.806;2022-07-29T13:15:27;24.80;89.80
66184;DHT22;52989;48.796;9.806;2022-07-29T13:17:52;24.30;90.40
66184;DHT22;52989;48.796;9.806;2022-07-29T13:20:18;24.20;90.00
66184;DHT22;52989;48.796;9.806;2022-07-29T13:22:47;24.50;89.60
66184;DHT22;52989;48.796;9.806;2022-07-29T13:25:13;24.50;89.60
66184;DHT22;52989;48.796;9.806;2022-07-29T13:27:39;24.20;89.10
66184;DHT22;52989;48.796;9.806;2022-07-29T13:30:09;24.30;87.00
66184;DHT22;52989;48.796;9.806;2022-07-29T13:32:35;24.30;90.60
66184;DHT22;52989;48.796;9.806;2022-07-29T13:35:04;24.10;89.50
66184;DHT22;52989;48.796;9.806;2022-07-29T13:37:30;24.50;89.00
66184;DHT22;52989;48.796;9.806;2022-07-29T13:39:58;24.30;87.50
66184;DHT22;52989;48.796;9.806;2022-07-29T13:42:26;24.20;89.50
66184;DHT22;52989;48.796;9.806;2022-07-29T13:44:52;24.00;91.10
66184;DHT22;52989;48.796;9.806;2022-07-29T13:47:18;23.70;90.80
66184;DHT22;52989;48.796;9.806;2022-07-29T13:49:44;24.00;90.30
66184;DHT22;52989;48.796;9.806;2022-07-29T13:52:10;23.90;90.50
66184;DHT22;52989;48.796;9.806;2022-07-29T13:54:36;24.00;88.30
66184;DHT22;52989;48.796;9.806;2022-07-29T13:57:05;24.10;87.50
66184;DHT22;52989;48.796;9.806;2022-07-29T13:59:31;24.00;85.30
66184;DHT22;52989;48.796;9.806;2022-07-29T14:01:56;23.90;82.90
66184;DHT22;52989;48.796;9.806;2022-07-29T14:04:22;24.00;82.90
66184;DHT22;52989;48.796;9.806;2022-07-29T14:06:51;23.90;85.00
66184;DHT22;52989;48.796;9.806;2022-07-29T14:09:17;24.30;85.10
66184;DHT22;52989;48.796;9.806;2022-07-29T14:11:42;23.90;78.70
66184;DHT22;52989;48.796;9.806;2022-07-29T14:14:09;23.50;85.20
66184;DHT22;52989;48.796;9.806;2022-07-29T14:16:35;23.00;83.50
66184;DHT22;52989;48.796;9.806;2022-07-29T14:19:02;22.60;86.40
66184;DHT22;52989;48.796;9.806;2022-07-29T14:21:27;22.40;86.80
66184;DHT22;52989;48.796;9.806;2022-07-29T14:23:53;22.60;87.10
66184;DHT22;52989;48.796;9.806;2022-07-29T14:26:21;22.70;85.50
66184;DHT22;52989;48.796;9.806;2022-07-29T14:28:47;22.80;85.40
66184;DHT22;52989;48.796;9.806;2022-07-29T14:31:13;23.00;84.60
66184;DHT22;52989;48.796;9.806;2022-07-29T14:33:39;23.30;83.90
66184;DHT22;52989;48.796;9.806;2022-07-29T14:36:05;23.40;82.40
66184;DHT22;52989;48.796;9.806;2022-07-29T14:38:30;23.40;82.60
66184;DHT22;52989;48.796;9.806;2022-07-29T14:40:56;23.40;83.70
66184;DHT22;52989;48.796;9.806;2022-07-29T14:43:22;23.20;82.00
66184;DHT22;52989;48.796;9.806;2022-07-29T14:45:48;23.30;83.90
66184;DHT22;52989;48.796;9.806;2022-07-29T14:48:14;23.40;82.20
66184;DHT22;52989;48.796;9.806;2022-07-29T14:50:39;23.40;83.70
66184;DHT22;52989;48.796;9.806;2022-07-29T14:53:05;23.50;83.40
66184;DHT22;52989;48.796;9.806;2022-07-29T14:55:31;23.50;83.70
66184;DHT22;52989;48.796;9.806;2022-07-29T14:57:56;23.30;85.10
66184;DHT22;52989;48.796;9.806;2022-07-29T15:00:23;23.10;86.00
66184;DHT22;52989;48.796;9.806;2022-07-29T15:02:49;22.70;87.60
66184;DHT22;52989;48.796;9.806;2022-07-29T15:05:15;22.40;88.50
66184;DHT22;52989;48.796;9.806;2022-07-29T15:07:40;22.30;90.50
66184;DHT22;52989;48.796;9.806;2022-07-29T15:10:06;22.20;92.70
66184;DHT22;52989;48.796;9.806;2022-07-29T15:12:32;22.20;92.60
66184;DHT22;52989;48.796;9.806;2022-07-29T15:14:57;22.40;91.90
66184;DHT22;52989;48.796;9.806;2022-07-29T15:17:23;22.10;98.10
66184;DHT22;52989;48.796;9.806;2022-07-29T15:19:49;21.90;96.20
66184;DHT22;52989;48.796;9.806;2022-07-29T15:22:14;22.00;96.90
66184;DHT22;52989;48.796;9.806;2022-07-29T15:24:40;22.00;94.30
66184;DHT22;52989;48.796;9.806;2022-07-29T15:27:06;22.00;94.10
66184;DHT22;52989;48.796;9.806;2022-07-29T15:29:31;21.80;94.10
66184;DHT22;52989;48.796;9.806;2022-07-29T15:31:57;21.80;93.80
66184;DHT22;52989;48.796;9.806;2022-07-29T15:34:22;21.80;94.70
66184;DHT22;52989;48.796;9.806;2022-07-29T15:36:50;22.00;93.60
66184;DHT22;52989;48.796;9.806;2022-07-29T15:39:16;22.00;96.50
66184;DHT22;52989;48.796;9.806;2022-07-29T15:41:42;22.10;96.10
66184;DHT22;52989;48.796;9.806;2022-07-29T15:44:08;22.10;97.00
66184;DHT22;52989;48.796;9.806;2022-07-29T15:46:33;22.00;97.90
66184;DHT22;52989;48.796;9.806;2022-07-29T15:49:17;22.10;95.80
66184;DHT22;52989;48.796;9.806;2022-07-29T15:51:43;22.40;92.50
66184;DHT22;52989;48.796;9.806;2022-07-29T15:54:09;22.60;91.80
66184;DHT22;52989;48.796;9.806;2022-07-29T15:56:34;22.80;91.60
66184;DHT22;52989;48.796;9.806;2022-07-29T15:59:00;22.50;93.30
66184;DHT22;52989;48.796;9.806;2022-07-29T16:01:25;22.30;92.30
66184;DHT22;52989;48.796;9.806;2022-07-29T16:03:52;22.50;92.30